X  Fermer Données météorologiques d'aviation de Metar     EDDL Düsseldorf Airport
Température
61°F Température
52°F Point de rosée
72% Humidité



Vent
16 MPH
26 KM/H
7 M/S
14 KTS



220°
SO
Conditions actuelles

Nuages épars Nuages épars
Pression 1012.87 (hPa) - 29.91 (inHg)
Visibilité 6 (mile) - 9.7 (km)
Aéroport
Code de l'aéroport EDDL

Emplacement: Düsseldorf Airport
Distance: 30 (mi)

Metar:
EDDL 131120Z AUTO 22014KT 9999 SCT026 OVC032 16/11 Q1013 NOSIG

Temps: 13-07-2024 11:20 CEST